Time;durP1;ratioP1;P1;durP2;ratioP2;P2;SDS_P1;SDS_P2;PMS_P1;PMS_P2;Temp;Humidity;BMP_temperature;BMP_pressure;BME280_temperature;BME280_humidity;BME280_pressure;Samples;Min_cycle;Max_cycle;Signal;HPM_P1;HPM_P2
2022/01/11 00:01:04;;;;;;;41.57;26.23;;;-1.90;14.80;;;;;;5068909;28;20234;-59
2022/01/11 00:03:33;;;;;;;41.83;25.97;;;-1.90;29.40;;;;;;5064953;28;20234;-59
2022/01/11 00:06:13;;;;;;;39.50;25.47;;;-2.10;1.00;;;;;;5064116;28;20198;-59
2022/01/11 00:08:44;;;;;;;46.77;26.90;;;-2.00;1.00;;;;;;5066670;28;20730;-58
2022/01/11 00:11:14;;;;;;;45.97;26.73;;;-2.00;1.00;;;;;;5067491;28;20183;-58
2022/01/11 00:13:42;;;;;;;48.43;26.37;;;-2.00;1.00;;;;;;5065921;28;20294;-58
2022/01/11 00:16:13;;;;;;;51.33;28.77;;;-2.00;1.00;;;;;;5074825;28;20654;-59
2022/01/11 00:18:40;;;;;;;46.63;25.30;;;-2.00;1.00;;;;;;5068427;28;20210;-59
2022/01/11 00:21:10;;;;;;;46.97;27.13;;;-2.10;1.00;;;;;;5066945;28;20669;-59
2022/01/11 00:26:05;;;;;;;44.10;25.73;;;-2.10;1.00;;;;;;5064025;28;20242;-58
2022/01/11 00:28:35;;;;;;;48.20;26.63;;;-2.10;1.00;;;;;;5065293;28;20271;-58
2022/01/11 00:31:24;;;;;;;45.80;25.97;;;-2.10;1.00;;;;;;5064608;28;20287;-58
2022/01/11 00:33:53;;;;;;;46.53;25.67;;;-2.10;99.90;;;;;;5076042;28;20226;-58
2022/01/11 00:36:42;;;;;;;43.17;26.23;;;-2.20;99.90;;;;;;5043381;28;20238;-59
2022/01/11 00:39:12;;;;;;;44.80;27.23;;;-2.20;1.00;;;;;;5065931;28;20285;-58
2022/01/11 00:41:42;;;;;;;39.17;25.17;;;-2.10;1.00;;;;;;5055299;28;20600;-58
2022/01/11 00:44:10;;;;;;;40.53;24.77;;;-2.10;1.00;;;;;;5031695;28;20292;-58
2022/01/11 00:46:40;;;;;;;42.63;25.53;;;-2.20;1.00;;;;;;5042888;28;20225;-58
2022/01/11 00:49:07;;;;;;;42.73;24.93;;;-2.20;99.90;;;;;;5067093;28;20199;-58
2022/01/11 00:51:34;;;;;;;45.53;25.97;;;-2.30;99.90;;;;;;5086120;28;20585;-58
2022/01/11 00:54:04;;;;;;;41.13;25.27;;;-2.30;99.90;;;;;;5069550;28;20205;-59
2022/01/11 00:56:31;;;;;;;44.07;26.07;;;-2.30;99.90;;;;;;5086724;28;20657;-59
2022/01/11 00:58:58;;;;;;;39.00;25.13;;;-2.30;99.90;;;;;;5053323;28;20206;-59
2022/01/11 01:01:27;;;;;;;50.10;27.47;;;-2.30;99.90;;;;;;5083933;28;20289;-59
2022/01/11 01:03:59;;;;;;;45.23;27.70;;;-2.30;99.90;;;;;;5084463;28;20186;-59
2022/01/11 01:06:26;;;;;;;45.10;26.20;;;-2.20;1.00;;;;;;5067061;28;20248;-59
2022/01/11 01:08:53;;;;;;;44.17;26.73;;;-2.20;1.00;;;;;;5066308;28;20195;-58
2022/01/11 01:11:21;;;;;;;49.87;28.43;;;-2.20;1.00;;;;;;5066584;28;20197;-58
2022/01/11 01:13:49;;;;;;;60.50;37.10;;;-2.20;99.90;;;;;;5050358;28;20216;-59
2022/01/11 01:16:16;;;;;;;49.37;28.97;;;-2.20;1.00;;;;;;5067610;28;20194;-59
2022/01/11 01:19:03;;;;;;;50.63;30.97;;;-2.20;1.00;;;;;;5066987;28;20206;-59
2022/01/11 01:21:36;;;;;;;77.50;41.40;;;-2.20;1.00;;;;;;5066633;28;20222;-59
2022/01/11 01:24:06;;;;;;;82.83;46.73;;;-2.30;1.00;;;;;;5067688;28;20214;-59
2022/01/11 01:26:38;;;;;;;59.03;36.50;;;-2.30;1.00;;;;;;5067323;28;20202;-59
2022/01/11 01:29:05;;;;;;;99.03;52.40;;;-2.40;1.00;;;;;;5085528;28;20205;-58
2022/01/11 01:31:32;;;;;;;68.90;39.17;;;-2.40;1.00;;;;;;5084946;28;20590;-58
2022/01/11 01:34:05;;;;;;;68.53;38.37;;;-2.40;1.00;;;;;;5084092;28;20236;-58
2022/01/11 01:36:32;;;;;;;40.53;26.13;;;-2.50;1.00;;;;;;5067984;28;20750;-59
2022/01/11 01:38:59;;;;;;;44.63;25.10;;;-2.50;99.90;;;;;;5083841;28;20194;-58
2022/01/11 01:41:26;;;;;;;42.00;24.03;;;-2.50;99.90;;;;;;5084668;28;20198;-58
2022/01/11 01:43:59;;;;;;;41.73;24.97;;;-2.50;1.00;;;;;;5068430;28;20741;-58
2022/01/11 01:46:26;;;;;;;39.63;24.67;;;-2.50;1.00;;;;;;5057980;28;20248;-59
2022/01/11 01:48:57;;;;;;;42.50;24.20;;;-2.50;1.00;;;;;;5065779;28;20198;-59
2022/01/11 01:51:27;;;;;;;37.63;24.30;;;-2.50;1.00;;;;;;5066160;28;20255;-58
2022/01/11 01:53:55;;;;;;;40.03;24.17;;;-2.50;1.00;;;;;;5086151;28;20235;-58
2022/01/11 01:56:23;;;;;;;37.07;22.93;;;-2.50;1.00;;;;;;5065655;28;20217;-58
2022/01/11 01:58:51;;;;;;;41.57;22.87;;;-2.60;99.90;;;;;;5065994;28;20553;-58
2022/01/11 02:01:21;;;;;;;37.87;24.53;;;-2.60;99.90;;;;;;5064891;28;20230;-59
2022/01/11 02:03:48;;;;;;;42.70;24.03;;;-2.50;99.90;;;;;;5083553;28;20191;-59
2022/01/11 02:06:18;;;;;;;36.60;23.57;;;-2.50;1.00;;;;;;5085434;28;20218;-59
2022/01/11 02:08:50;;;;;;;39.03;22.63;;;-2.50;1.00;;;;;;5059382;28;22926;-59
2022/01/11 02:11:23;;;;;;;33.73;21.93;;;-2.60;1.00;;;;;;5067310;28;20251;-59
2022/01/11 02:13:52;;;;;;;38.90;22.40;;;-2.60;99.90;;;;;;5053133;28;20194;-59
2022/01/11 02:16:22;;;;;;;38.67;22.63;;;-2.60;99.90;;;;;;5066650;28;20669;-59
2022/01/11 02:18:53;;;;;;;39.73;22.03;;;-2.60;99.90;;;;;;5086360;28;20182;-59
2022/01/11 02:21:22;;;;;;;36.13;21.17;;;-2.60;99.90;;;;;;5065373;28;20456;-59
2022/01/11 02:23:51;;;;;;;32.37;20.57;;;-2.70;91.50;;;;;;5067064;28;20206;-59
2022/01/11 02:26:21;;;;;;;36.50;21.13;;;-2.70;1.00;;;;;;5067018;28;20419;-59
2022/01/11 02:28:48;;;;;;;31.80;20.93;;;-2.80;1.00;;;;;;5064323;28;20245;-59
2022/01/11 02:31:16;;;;;;;38.07;21.80;;;-2.80;1.00;;;;;;5064835;28;20190;-59
2022/01/11 02:33:47;;;;;;;38.23;21.53;;;-2.70;99.90;;;;;;5066355;28;20676;-59
2022/01/11 02:36:23;;;;;;;35.23;20.13;;;-2.70;99.90;;;;;;5083743;28;20239;-59
2022/01/11 02:38:53;;;;;;;30.43;20.53;;;-2.70;99.90;;;;;;5059506;28;21572;-60
2022/01/11 02:41:21;;;;;;;28.83;19.57;;;-2.70;99.90;;;;;;5064408;28;20259;-59
2022/01/11 02:43:49;;;;;;;34.47;20.63;;;-2.70;99.90;;;;;;5066230;28;20190;-59
2022/01/11 02:46:20;;;;;;;31.43;20.40;;;-2.70;99.90;;;;;;5055751;28;20210;-58
2022/01/11 02:48:51;;;;;;;35.53;19.80;;;-2.80;99.90;;;;;;5072206;28;20661;-59
2022/01/11 02:51:21;;;;;;;33.63;19.70;;;-2.70;99.90;;;;;;5038757;28;20245;-58
2022/01/11 02:53:53;;;;;;;31.43;19.77;;;-2.80;99.90;;;;;;5040409;28;20252;-59
2022/01/11 02:56:23;;;;;;;33.23;19.50;;;-2.70;1.00;;;;;;5085208;28;20237;-58
2022/01/11 02:58:50;;;;;;;33.83;19.87;;;-2.70;1.00;;;;;;5065175;28;20190;-58
2022/01/11 03:01:17;;;;;;;31.13;19.37;;;-2.80;1.00;;;;;;5065548;28;20271;-58
2022/01/11 03:03:47;;;;;;;32.80;20.83;;;-2.80;99.90;;;;;;5066960;28;20222;-58
2022/01/11 03:06:16;;;;;;;37.13;20.73;;;-2.70;1.00;;;;;;5067106;28;20218;-58
2022/01/11 03:08:46;;;;;;;29.17;19.73;;;-2.70;1.00;;;;;;5063563;28;20210;-58
2022/01/11 03:11:19;;;;;;;33.10;20.17;;;-2.70;99.90;;;;;;5063550;28;20198;-58
2022/01/11 03:13:48;;;;;;;31.83;19.70;;;-2.80;61.90;;;;;;5047681;28;20193;-58
2022/01/11 03:16:20;;;;;;;32.33;19.97;;;-2.80;1.00;;;;;;5063794;28;20194;-58
2022/01/11 03:18:47;;;;;;;33.23;20.53;;;-2.90;1.00;;;;;;5067151;28;20194;-58
2022/01/11 03:21:16;;;;;;;34.57;19.57;;;-2.90;1.00;;;;;;5065143;28;20253;-58
2022/01/11 03:23:44;;;;;;;35.90;20.50;;;-2.90;1.00;;;;;;5066371;28;20213;-59
2022/01/11 03:26:11;;;;;;;34.13;19.37;;;-3.00;1.00;;;;;;5066442;28;20216;-58
2022/01/11 03:28:41;;;;;;;31.27;18.17;;;-3.00;1.00;;;;;;5083396;28;20649;-58
2022/01/11 03:31:08;;;;;;;32.13;19.30;;;-3.00;1.00;;;;;;5064155;28;20198;-58
2022/01/11 03:33:46;;;;;;;30.50;19.20;;;-2.90;1.00;;;;;;5064505;28;20261;-59
2022/01/11 03:36:13;;;;;;;30.60;18.97;;;-2.90;1.00;;;;;;5065867;28;20202;-59
2022/01/11 03:38:40;;;;;;;27.37;18.07;;;-3.00;1.00;;;;;;5049476;28;20238;-58
2022/01/11 03:41:12;;;;;;;31.00;18.20;;;-3.00;1.00;;;;;;5085047;28;20278;-58
2022/01/11 03:43:40;;;;;;;27.23;17.60;;;-3.00;1.00;;;;;;5083285;28;20277;-58
2022/01/11 03:46:14;;;;;;;30.37;18.03;;;-3.00;1.00;;;;;;5066476;28;20653;-60
2022/01/11 03:48:41;;;;;;;29.13;18.30;;;-3.00;1.00;;;;;;5059070;28;20222;-58
2022/01/11 03:51:11;;;;;;;28.00;18.20;;;-3.10;99.90;;;;;;5079241;28;20187;-58
2022/01/11 03:54:09;;;;;;;27.77;17.37;;;-3.10;99.90;;;;;;5081853;28;20286;-59
2022/01/11 03:56:44;;;;;;;27.37;18.63;;;-3.10;1.00;;;;;;5039296;28;20229;-59
2022/01/11 03:59:18;;;;;;;26.63;17.67;;;-3.00;1.00;;;;;;5066932;28;20704;-59
2022/01/11 04:01:46;;;;;;;31.83;18.80;;;-2.90;1.00;;;;;;5080586;28;20456;-59
2022/01/11 04:04:15;;;;;;;28.10;18.53;;;-3.00;1.00;;;;;;5063460;28;20277;-59
2022/01/11 04:06:43;;;;;;;23.73;17.07;;;-3.10;1.00;;;;;;5070048;28;20267;-59
2022/01/11 04:09:11;;;;;;;27.03;17.07;;;-3.10;99.90;;;;;;5069260;28;20237;-58
2022/01/11 04:11:39;;;;;;;27.87;16.90;;;-3.10;99.90;;;;;;5088947;28;20197;-58
2022/01/11 04:14:06;;;;;;;28.40;17.67;;;-3.10;99.90;;;;;;5063176;28;20198;-58
2022/01/11 04:16:33;;;;;;;30.53;18.17;;;-3.10;1.00;;;;;;5068907;28;20210;-59
2022/01/11 04:19:02;;;;;;;27.67;17.53;;;-3.00;23.70;;;;;;5069108;28;20248;-59
2022/01/11 04:21:30;;;;;;;28.77;16.93;;;-3.00;1.00;;;;;;5065949;28;20263;-58
2022/01/11 04:23:58;;;;;;;30.70;17.23;;;-3.10;1.00;;;;;;5069086;28;20212;-58
2022/01/11 04:26:26;;;;;;;26.73;18.27;;;-3.10;1.00;;;;;;5064012;28;20229;-58
2022/01/11 04:28:57;;;;;;;27.63;17.50;;;-3.10;1.00;;;;;;5069740;28;20534;-58
2022/01/11 04:31:24;;;;;;;27.87;16.90;;;-3.10;1.00;;;;;;5067813;28;20195;-58
2022/01/11 04:33:51;;;;;;;33.87;18.70;;;-3.10;1.00;;;;;;5068105;28;20246;-59
2022/01/11 04:36:24;;;;;;;28.30;18.27;;;-3.10;1.00;;;;;;5084547;28;20668;-58
2022/01/11 04:38:51;;;;;;;29.00;17.17;;;-3.10;1.00;;;;;;5069258;28;20241;-59
2022/01/11 04:41:19;;;;;;;35.83;20.13;;;-3.10;1.00;;;;;;5088144;28;20194;-58
2022/01/11 04:43:49;;;;;;;27.97;17.80;;;-3.20;1.00;;;;;;5067651;28;20279;-59
2022/01/11 04:46:18;;;;;;;26.83;18.23;;;-3.10;1.00;;;;;;5054509;28;20596;-58
2022/01/11 04:48:50;;;;;;;29.27;17.60;;;-3.10;1.00;;;;;;5069781;28;20190;-58
2022/01/11 04:51:17;;;;;;;29.90;18.03;;;-3.10;1.00;;;;;;5060678;28;20225;-60
2022/01/11 04:53:44;;;;;;;25.70;17.80;;;-3.20;1.00;;;;;;5065618;28;20194;-59
2022/01/11 04:56:15;;;;;;;28.17;17.80;;;-3.20;1.00;;;;;;5059356;28;20260;-59
2022/01/11 04:58:43;;;;;;;27.70;18.27;;;-3.20;1.00;;;;;;5066223;28;20198;-59
2022/01/11 05:01:10;;;;;;;29.27;18.70;;;-3.20;1.00;;;;;;5069189;28;20722;-59
2022/01/11 05:03:40;;;;;;;29.10;18.70;;;-3.20;1.00;;;;;;5066942;28;20198;-59
2022/01/11 05:06:07;;;;;;;28.47;18.40;;;-3.10;1.00;;;;;;5068122;28;20705;-59
2022/01/11 05:08:35;;;;;;;30.50;18.77;;;-3.20;1.00;;;;;;5069394;28;20212;-59
2022/01/11 05:11:04;;;;;;;28.60;19.30;;;-3.20;1.00;;;;;;5068746;28;20216;-59
2022/01/11 05:13:31;;;;;;;27.83;19.10;;;-3.20;1.00;;;;;;5068280;28;20236;-59
2022/01/11 05:16:02;;;;;;;29.53;18.80;;;-3.10;1.00;;;;;;5084190;28;20198;-59
2022/01/11 05:18:30;;;;;;;30.00;18.93;;;-3.20;1.00;;;;;;5084178;28;20194;-59
2022/01/11 05:20:58;;;;;;;28.57;19.43;;;-3.10;1.00;;;;;;5082462;28;20219;-59
2022/01/11 05:23:25;;;;;;;25.80;18.27;;;-3.20;1.00;;;;;;5084118;28;20198;-59
2022/01/11 05:25:52;;;;;;;28.87;18.73;;;-3.20;1.00;;;;;;5084545;28;21400;-59
2022/01/11 05:28:19;;;;;;;28.93;19.33;;;-3.30;99.90;;;;;;5052379;28;20208;-59
2022/01/11 05:30:46;;;;;;;29.30;18.73;;;-3.30;99.90;;;;;;5038648;28;20194;-60
2022/01/11 05:33:14;;;;;;;25.67;18.23;;;-3.30;99.90;;;;;;5079829;28;20229;-59
2022/01/11 05:35:41;;;;;;;24.13;17.13;;;-3.40;1.00;;;;;;5050290;28;20202;-59
2022/01/11 05:38:10;;;;;;;26.80;17.67;;;-3.40;1.00;;;;;;5068738;28;20876;-59
2022/01/11 05:40:37;;;;;;;37.10;19.37;;;-3.50;1.00;;;;;;5064420;28;20271;-59
2022/01/11 05:43:12;;;;;;;26.20;18.67;;;-3.50;1.00;;;;;;5068823;28;20225;-59
2022/01/11 05:45:40;;;;;;;30.43;18.17;;;-3.50;1.00;;;;;;5067514;28;20305;-59
2022/01/11 05:48:07;;;;;;;32.00;17.40;;;-3.50;1.00;;;;;;5066802;28;20200;-59
2022/01/11 05:50:38;;;;;;;26.17;17.93;;;-3.50;1.00;;;;;;5069292;28;20183;-59
2022/01/11 05:53:08;;;;;;;23.77;16.97;;;-3.50;1.00;;;;;;5069790;28;20205;-59
2022/01/11 05:55:35;;;;;;;28.23;19.17;;;-3.50;1.00;;;;;;5046116;28;20541;-59
2022/01/11 05:58:03;;;;;;;32.20;19.13;;;-3.50;1.00;;;;;;5058887;28;20245;-59
2022/01/11 06:00:30;;;;;;;32.03;19.73;;;-3.50;1.00;;;;;;5068496;28;20206;-59
2022/01/11 06:02:58;;;;;;;34.13;20.37;;;-3.50;1.00;;;;;;5047352;28;20252;-59
2022/01/11 06:05:39;;;;;;;34.23;18.47;;;-3.50;1.00;;;;;;5055798;28;20218;-59
2022/01/11 06:08:16;;;;;;;30.87;18.33;;;-3.60;1.00;;;;;;5068154;28;20208;-59
2022/01/11 06:10:46;;;;;;;31.10;18.80;;;-3.60;1.00;;;;;;5068216;28;20202;-58
2022/01/11 06:13:14;;;;;;;33.00;19.50;;;-3.60;1.00;;;;;;5068958;28;20670;-59
2022/01/11 06:15:42;;;;;;;29.67;17.73;;;-3.60;1.00;;;;;;5067757;28;20214;-59
2022/01/11 06:18:11;;;;;;;28.23;18.70;;;-3.60;1.00;;;;;;5068718;28;20695;-59
2022/01/11 06:20:50;;;;;;;35.03;21.13;;;-3.60;1.00;;;;;;5067147;28;20222;-59
2022/01/11 06:23:17;;;;;;;28.50;18.37;;;-3.60;1.00;;;;;;5076809;28;20202;-59
2022/01/11 06:25:47;;;;;;;33.50;20.67;;;-3.60;1.00;;;;;;5060699;28;20694;-58
2022/01/11 06:28:14;;;;;;;28.87;18.20;;;-3.60;1.00;;;;;;5068597;28;20194;-59
2022/01/11 06:30:41;;;;;;;34.37;20.63;;;-3.60;1.00;;;;;;5087415;28;20201;-59
2022/01/11 06:33:08;;;;;;;35.13;21.57;;;-3.60;1.00;;;;;;5067193;28;20655;-59
2022/01/11 06:35:35;;;;;;;34.63;20.70;;;-3.60;1.00;;;;;;5067102;28;20264;-59
2022/01/11 06:38:02;;;;;;;40.13;22.40;;;-3.60;1.00;;;;;;5086939;28;20348;-60
2022/01/11 06:40:31;;;;;;;33.53;20.77;;;-3.60;1.00;;;;;;5068626;28;20218;-59
2022/01/11 06:42:59;;;;;;;36.83;21.40;;;-3.60;1.00;;;;;;5051727;28;20645;-59
2022/01/11 06:45:26;;;;;;;41.87;20.00;;;-3.60;99.90;;;;;;5084273;28;20206;-59
2022/01/11 06:47:57;;;;;;;34.00;21.13;;;-3.60;99.90;;;;;;5061136;28;20191;-59
2022/01/11 06:50:29;;;;;;;36.40;21.40;;;-3.70;99.90;;;;;;5067844;28;20256;-59
2022/01/11 06:52:56;;;;;;;35.37;21.27;;;-3.70;99.90;;;;;;5069116;28;20198;-59
2022/01/11 06:55:24;;;;;;;41.57;23.40;;;-3.70;99.90;;;;;;5054428;28;20194;-59
2022/01/11 06:57:51;;;;;;;36.17;21.60;;;-3.70;99.90;;;;;;5065972;28;20297;-59
2022/01/11 07:00:20;;;;;;;35.17;21.10;;;-3.80;99.90;;;;;;5052157;28;20314;-59
2022/01/11 07:02:53;;;;;;;32.37;21.73;;;-3.70;99.90;;;;;;5067402;28;21226;-59
2022/01/11 07:05:38;;;;;;;34.70;20.47;;;-3.70;99.90;;;;;;5084356;28;21523;-59
2022/01/11 07:08:06;;;;;;;38.67;23.30;;;-3.70;99.90;;;;;;5068912;28;20291;-59
2022/01/11 07:10:33;;;;;;;33.27;22.10;;;-3.70;99.90;;;;;;5067842;28;20735;-59
2022/01/11 07:13:02;;;;;;;31.47;21.10;;;-3.70;99.90;;;;;;5052552;28;20317;-59
2022/01/11 07:15:30;;;;;;;34.13;21.90;;;-3.70;99.90;;;;;;5068669;28;20210;-59
2022/01/11 07:18:04;;;;;;;39.47;22.13;;;-3.70;99.90;;;;;;5068390;28;20284;-59
2022/01/11 07:20:33;;;;;;;35.90;23.17;;;-3.70;99.90;;;;;;5066312;28;20190;-59
2022/01/11 07:23:01;;;;;;;38.60;23.13;;;-3.70;99.90;;;;;;5068483;28;20316;-59
2022/01/11 07:25:33;;;;;;;32.03;21.30;;;-3.70;99.90;;;;;;5064641;28;20696;-59
2022/01/11 07:28:04;;;;;;;38.67;21.87;;;-3.70;99.90;;;;;;5058602;28;20192;-59
2022/01/11 07:30:32;;;;;;;36.27;21.80;;;-3.70;99.90;;;;;;5060639;28;20194;-59
2022/01/11 07:32:59;;;;;;;37.97;21.73;;;-3.60;99.90;;;;;;5066646;28;20228;-59
2022/01/11 07:35:28;;;;;;;34.13;21.30;;;-3.60;99.90;;;;;;5051939;28;20201;-59
2022/01/11 07:37:57;;;;;;;36.60;21.60;;;-3.70;49.30;;;;;;5047985;28;20248;-59
2022/01/11 07:40:25;;;;;;;34.23;20.57;;;-3.70;97.30;;;;;;5063988;28;20198;-60
2022/01/11 07:42:58;;;;;;;33.23;22.53;;;-3.60;99.90;;;;;;5069465;28;20235;-59
2022/01/11 07:45:45;;;;;;;35.13;23.50;;;-3.50;99.90;;;;;;5087229;28;20472;-59
2022/01/11 07:48:20;;;;;;;35.87;22.80;;;-3.40;1.00;;;;;;5071111;28;20205;-60
2022/01/11 07:50:56;;;;;;;33.03;20.30;;;-3.30;1.00;;;;;;5066074;28;20261;-59
2022/01/11 07:53:23;;;;;;;34.60;21.63;;;-3.30;1.00;;;;;;5067331;28;20248;-59
2022/01/11 07:55:55;;;;;;;36.13;21.77;;;-3.30;1.00;;;;;;5054361;28;20282;-59
2022/01/11 07:58:22;;;;;;;35.40;21.70;;;-3.20;99.90;;;;;;5063791;28;20191;-59
2022/01/11 08:00:50;;;;;;;34.30;22.37;;;-3.20;99.90;;;;;;5065526;28;20214;-59
2022/01/11 08:03:24;;;;;;;36.23;23.07;;;-3.10;99.90;;;;;;5080267;28;20218;-59
2022/01/11 08:06:09;;;;;;;35.27;21.93;;;-3.10;99.90;;;;;;5082593;28;20214;-59
2022/01/11 08:08:39;;;;;;;33.73;21.37;;;-3.10;99.90;;;;;;5078619;28;20278;-59
2022/01/11 08:11:08;;;;;;;38.13;22.70;;;-3.10;96.10;;;;;;5061798;28;20186;-59
2022/01/11 08:13:37;;;;;;;33.90;21.90;;;-3.00;18.40;;;;;;5069622;28;20279;-59
2022/01/11 08:16:05;;;;;;;35.73;21.90;;;-3.00;1.00;;;;;;5061992;28;20222;-59
2022/01/11 08:18:32;;;;;;;37.07;21.27;;;-2.90;1.00;;;;;;5047315;28;20297;-59
2022/01/11 08:21:01;;;;;;;31.53;21.93;;;-2.90;1.00;;;;;;5068711;28;20230;-59
2022/01/11 08:23:28;;;;;;;35.80;22.53;;;-2.80;1.00;;;;;;5074383;28;20572;-59
2022/01/11 08:25:57;;;;;;;33.87;22.73;;;-2.70;1.00;;;;;;5069302;28;20264;-59
2022/01/11 08:28:25;;;;;;;37.07;23.37;;;-2.70;1.00;;;;;;5069752;28;20183;-60
2022/01/11 08:30:57;;;;;;;37.97;23.23;;;-2.70;1.00;;;;;;5061131;28;20190;-59
2022/01/11 08:33:28;;;;;;;31.87;21.93;;;-2.60;1.00;;;;;;5046342;28;20291;-59
2022/01/11 08:35:56;;;;;;;35.20;22.87;;;-2.60;1.00;;;;;;5062259;28;20558;-59
2022/01/11 08:38:25;;;;;;;35.40;23.70;;;-2.50;99.90;;;;;;5064721;28;20221;-59
2022/01/11 08:40:54;;;;;;;37.10;23.03;;;-2.40;99.90;;;;;;5061015;28;20202;-59
2022/01/11 08:43:21;;;;;;;44.80;29.70;;;-2.30;99.90;;;;;;5057387;28;20264;-59
2022/01/11 08:45:51;;;;;;;42.10;25.63;;;-2.30;99.90;;;;;;5066555;28;20711;-60
2022/01/11 08:48:18;;;;;;;37.57;24.83;;;-2.20;99.90;;;;;;5082431;28;20195;-59
2022/01/11 08:50:53;;;;;;;38.87;22.83;;;-2.10;99.90;;;;;;5061146;28;20202;-59
2022/01/11 08:53:25;;;;;;;35.83;22.47;;;-1.90;99.90;;;;;;5056868;28;20195;-59
2022/01/11 08:55:52;;;;;;;33.83;19.90;;;-1.90;99.90;;;;;;5057537;28;20253;-60
2022/01/11 08:58:21;;;;;;;40.20;22.23;;;-1.80;99.90;;;;;;5061925;28;20199;-59
2022/01/11 09:00:49;;;;;;;36.33;20.23;;;-1.70;99.90;;;;;;5062837;28;20183;-59
2022/01/11 09:03:17;;;;;;;36.10;21.07;;;-1.60;99.90;;;;;;5061103;28;20199;-59
2022/01/11 09:05:47;;;;;;;36.83;19.67;;;-1.60;99.90;;;;;;5070102;28;20411;-60
2022/01/11 09:08:17;;;;;;;31.57;21.57;;;-1.50;99.90;;;;;;5048179;28;20256;-60
2022/01/11 09:10:44;;;;;;;33.40;21.77;;;-1.40;99.90;;;;;;5063685;28;20199;-60
2022/01/11 09:13:11;;;;;;;34.30;21.50;;;-1.30;99.90;;;;;;5058038;28;20713;-59
2022/01/11 09:15:39;;;;;;;28.63;18.17;;;-1.20;99.90;;;;;;5064304;28;20297;-60
2022/01/11 09:18:08;;;;;;;27.20;18.33;;;-1.10;99.90;;;;;;5059487;28;20199;-59
2022/01/11 09:20:36;;;;;;;24.23;17.70;;;-1.00;99.90;;;;;;5062654;28;20223;-59
2022/01/11 09:23:04;;;;;;;31.73;18.73;;;-0.90;99.90;;;;;;5062877;28;20237;-59
2022/01/11 09:25:33;;;;;;;33.33;18.83;;;-0.70;99.90;;;;;;5064195;28;20517;-59
2022/01/11 09:28:05;;;;;;;26.03;18.47;;;0.20;1.00;;;;;;5063467;28;20612;-60
2022/01/11 09:30:33;;;;;;;21.20;13.60;;;5.50;54.80;;;;;;5064260;28;20199;-57
2022/01/11 09:33:01;;;;;;;14.47;9.97;;;9.50;58.60;;;;;;5063837;28;20664;-59
2022/01/11 09:35:31;;;;;;;10.07;7.80;;;12.50;99.90;;;;;;5064493;28;20192;-60
2022/01/11 09:38:17;;;;;;;8.27;6.50;;;14.10;99.90;;;;;;5057916;28;20246;-60
2022/01/11 09:40:51;;;;;;;9.03;6.17;;;15.70;99.90;;;;;;5064289;28;20195;-60
2022/01/11 09:43:21;;;;;;;8.60;6.47;;;16.80;99.90;;;;;;5073823;28;20822;-60
2022/01/11 09:45:51;;;;;;;10.88;6.55;;;17.20;99.90;;;;;;5064435;28;20207;-59
2022/01/11 09:48:25;;;;;;;9.48;6.43;;;17.50;99.90;;;;;;5066337;28;20223;-59
2022/01/11 09:50:52;;;;;;;8.23;5.97;;;17.10;99.90;;;;;;5062716;28;20866;-60
2022/01/11 09:53:22;;;;;;;8.23;5.93;;;16.90;99.90;;;;;;5046704;28;20195;-60
2022/01/11 09:55:50;;;;;;;7.78;5.82;;;16.90;99.90;;;;;;5059868;28;20195;-59
2022/01/11 09:58:23;;;;;;;7.25;5.47;;;17.50;99.90;;;;;;5062824;28;20808;-59
2022/01/11 10:00:53;;;;;;;8.77;5.90;;;17.80;99.90;;;;;;5063172;28;20237;-60
2022/01/11 10:04:04;;;;;;;8.27;6.03;;;18.40;99.90;;;;;;5037675;28;20602;-59
2022/01/11 10:06:56;;;;;;;8.60;6.03;;;19.50;99.90;;;;;;5061279;28;20214;-59
2022/01/11 10:09:28;;;;;;;9.52;5.88;;;19.70;99.90;;;;;;5055935;28;20194;-60
2022/01/11 10:12:01;;;;;;;12.30;6.20;;;20.00;99.90;;;;;;5065179;28;20182;-59
2022/01/11 10:14:35;;;;;;;10.10;6.13;;;19.60;99.90;;;;;;5063548;28;20191;-59
2022/01/11 10:17:15;;;;;;;10.05;6.10;;;19.70;99.90;;;;;;5050146;28;20259;-59
2022/01/11 10:19:59;;;;;;;7.00;5.45;;;20.30;99.90;;;;;;5062593;28;20763;-61
2022/01/11 10:22:27;;;;;;;9.38;6.20;;;21.50;99.90;;;;;;5064301;28;20276;-60
2022/01/11 10:24:55;;;;;;;9.73;7.47;;;21.10;99.90;;;;;;5066951;28;20218;-60
2022/01/11 10:27:35;;;;;;;14.38;11.80;;;20.80;99.90;;;;;;5059387;28;20219;-59
2022/01/11 10:30:17;;;;;;;13.25;9.90;;;20.40;99.90;;;;;;5064976;28;20202;-62
2022/01/11 10:32:55;;;;;;;21.63;16.83;;;19.80;99.90;;;;;;5067662;28;20234;-59
2022/01/11 10:35:43;;;;;;;40.33;33.67;;;19.40;99.90;;;;;;5067840;28;20198;-59
2022/01/11 10:38:39;;;;;;;12.48;7.82;;;19.40;99.90;;;;;;5079141;28;20217;-59
2022/01/11 10:41:11;;;;;;;9.45;7.07;;;20.20;99.90;;;;;;5066294;28;20539;-60
2022/01/11 10:43:44;;;;;;;15.57;13.23;;;21.50;99.90;;;;;;5065801;28;20203;-59
2022/01/11 10:46:17;;;;;;;16.73;12.50;;;20.90;99.90;;;;;;5065575;28;20810;-59
2022/01/11 10:49:02;;;;;;;8.10;6.25;;;20.50;99.90;;;;;;5077535;28;20198;-59
2022/01/11 10:51:30;;;;;;;8.75;6.70;;;18.40;99.90;;;;;;5079164;28;20190;-61
2022/01/11 10:53:57;;;;;;;10.52;6.88;;;17.80;99.90;;;;;;5053926;28;20589;-59
2022/01/11 10:56:40;;;;;;;13.25;6.50;;;17.20;99.90;;;;;;5067123;28;20228;-59
2022/01/11 10:59:10;;;;;;;10.95;6.55;;;19.60;99.90;;;;;;5084493;28;20650;-60
2022/01/11 11:01:45;;;;;;;11.00;6.70;;;20.30;99.90;;;;;;5084133;28;20191;-59
2022/01/11 11:04:33;;;;;;;9.60;6.35;;;21.50;99.90;;;;;;5065489;28;20212;-59
2022/01/11 11:07:15;;;;;;;12.13;6.65;;;20.60;99.90;;;;;;5068437;28;20214;-59
2022/01/11 11:10:01;;;;;;;13.52;6.97;;;19.90;99.90;;;;;;5078601;28;20204;-59
2022/01/11 11:12:31;;;;;;;13.77;7.07;;;19.40;99.90;;;;;;5067180;28;20190;-60
2022/01/11 11:15:03;;;;;;;10.48;7.03;;;20.10;99.90;;;;;;5064143;28;20201;-60
2022/01/11 11:17:39;;;;;;;8.30;7.03;;;20.00;99.90;;;;;;5058632;28;20209;-59
2022/01/11 11:20:14;;;;;;;9.52;6.78;;;21.00;99.90;;;;;;5067497;28;20224;-60
2022/01/11 11:22:41;;;;;;;9.60;6.85;;;21.10;99.90;;;;;;5096748;28;20194;-59
2022/01/11 11:25:08;;;;;;;9.38;6.95;;;21.10;99.90;;;;;;5087489;28;20202;-60
2022/01/11 11:27:38;;;;;;;8.07;6.50;;;20.70;99.90;;;;;;5069654;28;20222;-60
2022/01/11 11:30:06;;;;;;;8.32;6.18;;;20.80;99.90;;;;;;5085739;28;20190;-59
2022/01/11 11:32:35;;;;;;;9.20;6.28;;;20.40;99.90;;;;;;5085568;28;20194;-60
2022/01/11 11:35:02;;;;;;;8.80;6.20;;;20.60;99.90;;;;;;5083755;28;20675;-60
2022/01/11 11:37:35;;;;;;;8.57;6.10;;;20.40;99.90;;;;;;5089585;28;20233;-60
2022/01/11 11:40:20;;;;;;;9.40;5.63;;;20.30;99.90;;;;;;5087379;28;20202;-59
2022/01/11 11:42:53;;;;;;;10.68;6.53;;;20.20;99.90;;;;;;5063296;28;20628;-60
2022/01/11 11:45:25;;;;;;;9.75;5.93;;;19.80;99.90;;;;;;5082668;28;20194;-59
2022/01/11 11:48:06;;;;;;;9.55;6.50;;;19.70;99.90;;;;;;5087671;28;20225;-60
2022/01/11 11:50:34;;;;;;;7.72;5.95;;;20.10;99.90;;;;;;5069941;28;20205;-59
2022/01/11 11:53:01;;;;;;;18.23;12.90;;;19.90;99.90;;;;;;5070054;28;20203;-61
2022/01/11 11:55:32;;;;;;;17.27;11.65;;;20.20;99.90;;;;;;5084370;28;20207;-60
2022/01/11 11:58:08;;;;;;;16.45;9.73;;;20.20;99.90;;;;;;5075998;28;20282;-59
2022/01/11 12:00:41;;;;;;;9.90;5.38;;;16.70;99.90;;;;;;5063967;28;20276;-60
2022/01/11 12:03:25;;;;;;;23.23;17.00;;;16.70;99.90;;;;;;5082066;28;20201;-59
2022/01/11 12:05:53;;;;;;;19.30;14.23;;;15.30;99.90;;;;;;5083641;28;20195;-60
2022/01/11 12:08:32;;;;;;;9.25;6.03;;;16.10;99.90;;;;;;5083376;28;20218;-59
2022/01/11 12:11:00;;;;;;;17.92;9.52;;;15.60;99.90;;;;;;5085366;28;20538;-60
2022/01/11 12:13:51;;;;;;;27.73;18.10;;;14.60;99.90;;;;;;5079887;28;20202;-60
2022/01/11 12:16:26;;;;;;;10.60;5.07;;;13.80;99.90;;;;;;5068244;28;20230;-59
2022/01/11 12:19:12;;;;;;;9.77;6.10;;;14.20;99.90;;;;;;5084450;28;20187;-59
2022/01/11 12:21:53;;;;;;;11.70;7.57;;;14.10;99.90;;;;;;5084079;28;20281;-60
2022/01/11 12:24:38;;;;;;;14.27;8.52;;;14.60;99.90;;;;;;5087505;28;20186;-60
2022/01/11 12:27:08;;;;;;;12.93;6.45;;;15.90;99.90;;;;;;5087197;28;20293;-60
2022/01/11 12:29:53;;;;;;;17.40;10.50;;;15.50;99.90;;;;;;5085731;28;20190;-59
2022/01/11 12:32:26;;;;;;;12.93;8.60;;;14.90;99.90;;;;;;5083511;28;20194;-60
2022/01/11 12:34:55;;;;;;;11.15;5.97;;;14.90;99.90;;;;;;5066301;28;20280;-60
2022/01/11 12:37:32;;;;;;;9.20;5.50;;;14.00;99.90;;;;;;5064720;28;20198;-60
2022/01/11 12:40:31;;;;;;;12.93;6.05;;;14.30;99.90;;;;;;5068465;28;20307;-59
2022/01/11 12:43:01;;;;;;;13.90;8.00;;;14.90;99.90;;;;;;5068064;28;20727;-59
2022/01/11 12:45:53;;;;;;;11.05;7.30;;;14.70;99.90;;;;;;5067039;28;20509;-59
2022/01/11 12:48:48;;;;;;;10.88;6.20;;;14.40;99.90;;;;;;5065790;28;20250;-60
2022/01/11 12:51:31;;;;;;;10.43;6.15;;;13.60;99.90;;;;;;5067298;28;20199;-60
2022/01/11 12:54:14;;;;;;;14.70;6.03;;;13.20;99.90;;;;;;5070114;28;20291;-60
2022/01/11 12:56:42;;;;;;;14.73;6.20;;;13.20;99.90;;;;;;5068774;28;20214;-60
2022/01/11 12:59:10;;;;;;;9.70;7.40;;;12.50;99.90;;;;;;5067840;28;20226;-61